VOD weather

Vodochody Airport
Vodochody, Central Bohemian Region, Czechia

Public forecast

Using degrees Celsius for public forecast. Weather courtesy of forecast.io.

METAR (pilot weather report)

Report is more than 2 hours old.

Retrieved 2019/05/21 12:00 UTC (4 hours ago):

LKVO 211200Z VRB02KT 9999 FEW029 BKN049 19/11 Q1005

TAF (pilot weather forecast)

Closest forecast is Kbely Air Base, 8.1 nm (14.9 km) SE. Retrieved 2019/05/21 12:00 UTC (4 hours ago):

TAF COR LKKB 211100Z 2112/2212 16006KT 9999 BKN030 TEMPO 2112/2120 33010KT 7000 SHRA BKN025TCU PROB40 TEMPO 2112/2120 35014KT 5000 TSRA SCT015CB BKN020 BECMG 2118/2120 29008KT TEMPO 2202/2212 31016G30KT 7000 RA BKN017